Archival Weather

Al Ahsa

Al Ahsa, Saudi Arabia (OEAH)

Report from: Friday, May 26, 2023 4:00 AM +03
Current time: Monday, July 22, 2024 1:02 PM +03

Current weather – Weather history – Daily summaries
Weather forecast

Temperature29.0°C (84.2°F)
Heat index27.9°C (82.2°F)
Dew point8.0°C (46.4°F)
Winds 4 kts (2.1 m/s, 4.6 mph) Northwest (310°)
Clouds Sky clear
Altimeter29.74 in.Hg (1007 mB)
Relative humidity27 %
Density altitude1,974 ft. (602 m)
Remarks Ceiling and visibility OK
No significant changes expected in the next two hours
Flight conditions Visual Meteorological Conditions
Raw dataOEAH 260100Z 31004KT CAVOK 29/08 Q1007 NOSIG
An error has occurred. This application may no longer respond until reloaded. Reload 🗙